Kensington, Ohio
Current Conditions -  °F | °C
As of 9:51 PM on Sunday 21 Dec 2014 (Local Time) from KCAK Reporting Station
Haze Haze  
Wind Chill: 19°   Ceiling: Unl
Heat Index: 26°   Visibility: 6mi
Dew Point: 19°   Wind: 6mph
Humidity: 75%   Direction: 80°E
Pressure: 30.2"   Gusts: NA
Location:  40.74°N, 80.96°W
Report Text: KCAK 220251Z 08005KT 6SM HZ FEW025 M03/M07 A3020 RMK AO2 SLP241 T10331072 56008
Loading
Personal Weather Stations






























Interactive Weather Map New forecast layout! Learn more

10-Day Weather Forecast

Advertisements
Track Severe Weather on mobile